Time,TemperatureF,DewpointF,PressureIn,WindDirection,WindDirectionDegrees,WindSpeedMPH,WindSpeedGustMPH,Humidity,HourlyPrecipIn,Conditions,Clouds,dailyrainin,SoftwareType,DateUTC
2013-04-13 00:09:00,38.5,38.2,29.60,WSW,247,3.2,-999.0,99,-99.99,,,0.00,Acu-Link.com,2013-04-13 04:09:00,
2013-04-13 00:26:00,38.5,38.2,29.60,West,270,2.7,-999.0,99,-99.99,,,0.01,Acu-Link.com,2013-04-13 04:26:00,
2013-04-13 00:41:00,38.5,38.2,29.61,SW,225,2.7,-999.0,99,-99.99,,,0.01,Acu-Link.com,2013-04-13 04:41:00,
2013-04-13 00:56:00,38.5,38.2,29.61,WSW,247,4.2,-999.0,99,-99.99,,,0.01,Acu-Link.com,2013-04-13 04:56:00,
2013-04-13 01:12:00,38.7,37.9,29.62,SW,225,7.3,-999.0,97,-99.99,,,0.01,Acu-Link.com,2013-04-13 05:12:00,
2013-04-13 01:28:00,38.7,37.7,29.62,SW,225,9.9,-999.0,96,-99.99,,,0.01,Acu-Link.com,2013-04-13 05:28:00,
2013-04-13 01:43:00,38.7,37.4,29.62,WSW,247,5.3,-999.0,95,-99.99,,,0.01,Acu-Link.com,2013-04-13 05:43:00,
2013-04-13 01:59:00,38.5,36.9,29.62,West,270,8.9,-999.0,94,-99.99,,,0.01,Acu-Link.com,2013-04-13 05:59:00,
2013-04-13 02:14:00,38.3,36.5,29.62,West,270,7.3,-999.0,93,-99.99,,,0.01,Acu-Link.com,2013-04-13 06:14:00,
2013-04-13 02:30:00,37.9,35.8,29.63,SW,225,6.3,-999.0,92,-99.99,,,0.01,Acu-Link.com,2013-04-13 06:30:00,
2013-04-13 03:00:00,37.4,35.3,29.64,West,270,3.7,-999.0,92,-99.99,,,0.01,Acu-Link.com,2013-04-13 07:00:00,
2013-04-13 03:15:00,37.2,34.5,29.64,WSW,247,7.8,-999.0,90,-99.99,,,0.01,Acu-Link.com,2013-04-13 07:15:00,
2013-04-13 03:46:00,36.1,34.0,29.65,West,270,5.3,-999.0,92,-99.99,,,0.01,Acu-Link.com,2013-04-13 07:46:00,
2013-04-13 04:01:00,36.1,34.3,29.65,WSW,247,4.2,-999.0,93,-99.99,,,0.01,Acu-Link.com,2013-04-13 08:01:00,
2013-04-13 04:18:00,36.1,34.3,29.65,SW,225,5.3,-999.0,93,-99.99,,,0.01,Acu-Link.com,2013-04-13 08:18:00,
2013-04-13 04:33:00,36.1,34.3,29.65,WSW,247,4.2,-999.0,93,-99.99,,,0.01,Acu-Link.com,2013-04-13 08:33:00,
2013-04-13 04:48:00,36.1,32.0,29.66,WSW,247,8.3,-999.0,85,-99.99,,,0.01,Acu-Link.com,2013-04-13 08:48:00,
2013-04-13 05:04:00,36.1,32.0,29.66,SW,225,7.3,-999.0,85,-99.99,,,0.01,Acu-Link.com,2013-04-13 09:04:00,
2013-04-13 05:20:00,36.0,31.9,29.66,West,270,4.7,-999.0,85,-99.99,,,0.01,Acu-Link.com,2013-04-13 09:20:00,
2013-04-13 05:35:00,36.0,31.6,29.65,West,270,6.3,-999.0,84,-99.99,,,0.01,Acu-Link.com,2013-04-13 09:35:00,
2013-04-13 05:50:00,35.6,31.5,29.65,West,270,3.7,-999.0,85,-99.99,,,0.01,Acu-Link.com,2013-04-13 09:50:00,
2013-04-13 06:05:00,34.7,30.7,29.65,SSE,157,4.2,-999.0,85,-99.99,,,0.01,Acu-Link.com,2013-04-13 10:05:00,
2013-04-13 06:21:00,35.1,30.2,29.65,WSW,247,3.2,-999.0,82,-99.99,,,0.01,Acu-Link.com,2013-04-13 10:21:00,
2013-04-13 06:36:00,35.1,30.5,29.64,West,270,5.3,-999.0,83,-99.99,,,0.01,Acu-Link.com,2013-04-13 10:36:00,
2013-04-13 07:22:00,35.4,31.1,29.65,West,270,3.7,-999.0,84,-99.99,,,0.01,Acu-Link.com,2013-04-13 11:22:00,
2013-04-13 07:37:00,35.4,31.6,29.66,West,270,6.3,-999.0,86,-99.99,,,0.01,Acu-Link.com,2013-04-13 11:37:00,
2013-04-13 07:53:00,35.2,32.0,29.66,SW,225,2.7,-999.0,88,-99.99,,,0.01,Acu-Link.com,2013-04-13 11:53:00,
2013-04-13 08:09:00,35.2,33.1,29.66,SW,225,2.7,-999.0,92,-99.99,,,0.01,Acu-Link.com,2013-04-13 12:09:00,
2013-04-13 08:24:00,34.9,33.6,29.66,SSW,202,4.2,-999.0,95,-99.99,,,0.01,Acu-Link.com,2013-04-13 12:24:00,
2013-04-13 08:40:00,34.7,33.7,29.66,WSW,247,3.2,-999.0,96,-99.99,,,0.01,Acu-Link.com,2013-04-13 12:40:00,
2013-04-13 08:55:00,34.2,33.2,29.67,WNW,292,3.2,-999.0,96,-99.99,,,0.01,Acu-Link.com,2013-04-13 12:55:00,
2013-04-13 09:10:00,34.5,33.7,29.67,SW,225,3.7,-999.0,97,-99.99,,,0.01,Acu-Link.com,2013-04-13 13:10:00,
2013-04-13 09:25:00,35.6,34.3,29.67,West,270,5.3,-999.0,95,-99.99,,,0.01,Acu-Link.com,2013-04-13 13:25:00,
2013-04-13 09:40:00,36.1,34.0,29.66,WSW,247,4.7,-999.0,92,-99.99,,,0.01,Acu-Link.com,2013-04-13 13:40:00,
2013-04-13 09:56:00,36.7,34.0,29.66,WNW,292,4.7,-999.0,90,-99.99,,,0.01,Acu-Link.com,2013-04-13 13:56:00,
2013-04-13 10:14:00,36.9,33.7,29.65,West,270,2.7,-999.0,88,-99.99,,,0.01,Acu-Link.com,2013-04-13 14:14:00,
2013-04-13 10:32:00,36.5,32.1,29.66,SSW,202,9.4,-999.0,84,-99.99,,,0.01,Acu-Link.com,2013-04-13 14:32:00,
2013-04-13 11:05:00,37.8,30.9,29.66,NNE,22,5.8,-999.0,76,-99.99,,,0.01,Acu-Link.com,2013-04-13 15:05:00,
2013-04-13 11:21:00,37.9,31.3,29.66,SSW,202,6.3,-999.0,77,-99.99,,,0.01,Acu-Link.com,2013-04-13 15:21:00,
2013-04-13 12:08:00,40.3,31.0,29.67,SSW,202,5.3,-999.0,69,-99.99,,,0.01,Acu-Link.com,2013-04-13 16:08:00,
2013-04-13 12:23:00,40.3,29.9,29.68,WSW,247,7.3,-999.0,66,-99.99,,,0.01,Acu-Link.com,2013-04-13 16:23:00,
2013-04-13 12:44:00,39.6,29.9,29.68,WNW,292,6.8,-999.0,68,-99.99,,,0.01,Acu-Link.com,2013-04-13 16:44:00,
2013-04-13 13:14:00,39.0,31.1,29.69,WSW,247,9.4,-999.0,73,-99.99,,,0.01,Acu-Link.com,2013-04-13 17:14:00,
2013-04-13 13:34:00,39.7,31.1,29.69,WNW,292,4.7,-999.0,71,-99.99,,,0.01,Acu-Link.com,2013-04-13 17:34:00,
2013-04-13 13:52:00,41.2,31.1,29.69,West,270,10.9,-999.0,67,-99.99,,,0.01,Acu-Link.com,2013-04-13 17:52:00,
2013-04-13 14:08:00,40.1,30.0,29.69,West,270,6.3,-999.0,67,-99.99,,,0.01,Acu-Link.com,2013-04-13 18:08:00,
2013-04-13 14:24:00,39.0,30.4,29.70,NW,315,7.3,-999.0,71,-99.99,,,0.01,Acu-Link.com,2013-04-13 18:24:00,
2013-04-13 14:39:00,41.2,32.2,29.69,WNW,292,5.8,-999.0,70,-99.99,,,0.01,Acu-Link.com,2013-04-13 18:39:00,
2013-04-13 14:55:00,41.0,31.3,29.70,WNW,292,7.8,-999.0,68,-99.99,,,0.01,Acu-Link.com,2013-04-13 18:55:00,
2013-04-13 15:48:00,38.8,31.6,29.70,West,270,10.4,-999.0,75,-99.99,,,0.01,Acu-Link.com,2013-04-13 19:48:00,
2013-04-13 16:07:00,39.6,32.0,29.71,WSW,247,11.4,-999.0,74,-99.99,,,0.02,Acu-Link.com,2013-04-13 20:07:00,
2013-04-13 16:26:00,42.4,32.2,29.70,West,270,6.3,-999.0,67,-99.99,,,0.02,Acu-Link.com,2013-04-13 20:26:00,
2013-04-13 16:44:00,39.7,30.4,29.72,West,270,10.9,-999.0,69,-99.99,,,0.02,Acu-Link.com,2013-04-13 20:44:00,
2013-04-13 16:59:00,37.9,31.0,29.73,West,270,13.0,-999.0,76,-99.99,,,0.02,Acu-Link.com,2013-04-13 20:59:00,
2013-04-13 17:15:00,38.1,30.2,29.74,WSW,247,9.9,-999.0,73,-99.99,,,0.02,Acu-Link.com,2013-04-13 21:15:00,
2013-04-13 17:46:00,40.1,28.9,29.74,WSW,247,5.3,-999.0,64,-99.99,,,0.02,Acu-Link.com,2013-04-13 21:46:00,
2013-04-13 18:03:00,40.1,26.9,29.75,NW,315,7.3,-999.0,59,-99.99,,,0.02,Acu-Link.com,2013-04-13 22:03:00,
2013-04-13 18:18:00,39.0,26.3,29.76,West,270,6.8,-999.0,60,-99.99,,,0.02,Acu-Link.com,2013-04-13 22:18:00,
2013-04-13 18:36:00,38.5,26.6,29.76,West,270,6.8,-999.0,62,-99.99,,,0.02,Acu-Link.com,2013-04-13 22:36:00,
2013-04-13 18:53:00,38.1,27.0,29.77,WSW,247,6.8,-999.0,64,-99.99,,,0.02,Acu-Link.com,2013-04-13 22:53:00,
2013-04-13 19:09:00,38.1,27.0,29.77,WSW,247,6.3,-999.0,64,-99.99,,,0.02,Acu-Link.com,2013-04-13 23:09:00,
2013-04-13 19:24:00,37.9,27.2,29.77,WNW,292,4.2,-999.0,65,-99.99,,,0.02,Acu-Link.com,2013-04-13 23:24:00,
2013-04-13 19:43:00,37.6,27.7,29.77,West,270,4.2,-999.0,67,-99.99,,,0.02,Acu-Link.com,2013-04-13 23:43:00,
2013-04-13 19:58:00,37.4,27.8,29.78,SW,225,3.7,-999.0,68,-99.99,,,0.02,Acu-Link.com,2013-04-13 23:58:00,
2013-04-13 20:15:00,37.0,28.1,29.78,West,270,6.3,-999.0,70,-99.99,,,0.02,Acu-Link.com,2013-04-14 00:15:00,
2013-04-13 20:31:00,36.9,28.4,29.78,WSW,247,6.8,-999.0,71,-99.99,,,0.02,Acu-Link.com,2013-04-14 00:31:00,
2013-04-13 21:02:00,36.5,28.3,29.79,West,270,4.2,-999.0,72,-99.99,,,0.02,Acu-Link.com,2013-04-14 01:02:00,
2013-04-13 21:17:00,36.5,28.3,29.80,SW,225,4.7,-999.0,72,-99.99,,,0.02,Acu-Link.com,2013-04-14 01:17:00,
2013-04-13 21:33:00,36.3,28.5,29.80,WSW,247,5.8,-999.0,73,-99.99,,,0.02,Acu-Link.com,2013-04-14 01:33:00,
2013-04-13 21:49:00,36.3,28.5,29.81,SW,225,5.8,-999.0,73,-99.99,,,0.02,Acu-Link.com,2013-04-14 01:49:00,
2013-04-13 22:05:00,36.3,28.8,29.81,West,270,3.2,-999.0,74,-99.99,,,0.02,Acu-Link.com,2013-04-14 02:05:00,
2013-04-13 22:20:00,36.3,28.8,29.82,WSW,247,4.7,-999.0,74,-99.99,,,0.02,Acu-Link.com,2013-04-14 02:20:00,
2013-04-13 22:37:00,36.1,29.3,29.83,West,270,5.3,-999.0,76,-99.99,,,0.02,Acu-Link.com,2013-04-14 02:37:00,
2013-04-13 22:52:00,36.1,29.3,29.83,SW,225,5.3,-999.0,76,-99.99,,,0.02,Acu-Link.com,2013-04-14 02:52:00,
2013-04-13 23:07:00,36.1,29.3,29.83,WSW,247,3.7,-999.0,76,-99.99,,,0.02,Acu-Link.com,2013-04-14 03:07:00,
2013-04-13 23:22:00,36.0,29.5,29.84,West,270,4.7,-999.0,77,-99.99,,,0.02,Acu-Link.com,2013-04-14 03:22:00,
2013-04-13 23:39:00,36.0,29.5,29.84,West,270,3.2,-999.0,77,-99.99,,,0.02,Acu-Link.com,2013-04-14 03:39:00,
2013-04-13 23:54:00,36.0,29.5,29.84,West,270,3.7,-999.0,77,-99.99,,,0.02,Acu-Link.com,2013-04-14 03:54:00,